createdAt,value
2023-02-15T00:01:58.850Z,6.64
2023-02-15T00:04:45.715Z,6.60
2023-02-15T00:07:13.605Z,6.56
2023-02-15T00:09:40.267Z,6.53
2023-02-15T00:12:06.857Z,6.52
2023-02-15T00:14:33.517Z,6.51
2023-02-15T00:17:00.967Z,6.51
2023-02-15T00:19:27.719Z,6.49
2023-02-15T00:21:54.330Z,6.49
2023-02-15T00:24:21.110Z,6.49
2023-02-15T00:26:49.376Z,6.45
2023-02-15T00:29:17.927Z,6.42
2023-02-15T00:31:44.662Z,6.39
2023-02-15T00:34:19.580Z,6.35
2023-02-15T00:36:47.170Z,6.34
2023-02-15T00:39:15.990Z,6.31
2023-02-15T00:41:44.784Z,6.28
2023-02-15T00:44:13.297Z,6.27
2023-02-15T00:46:41.263Z,6.23
2023-02-15T00:49:10.119Z,6.19
2023-02-15T00:51:37.942Z,6.15
2023-02-15T00:54:04.545Z,6.08
2023-02-15T00:56:31.253Z,6.02
2023-02-15T00:58:58.338Z,5.95
2023-02-15T01:01:26.893Z,5.89
2023-02-15T01:03:54.324Z,5.83
2023-02-15T01:06:21.256Z,5.76
2023-02-15T01:08:48.722Z,5.69
2023-02-15T01:11:24.910Z,5.62
2023-02-15T01:14:00.724Z,5.55
2023-02-15T01:16:29.263Z,5.47
2023-02-15T01:18:57.022Z,5.43
2023-02-15T01:21:25.966Z,5.42
2023-02-15T01:23:53.008Z,5.42
2023-02-15T01:26:19.951Z,5.46
2023-02-15T01:28:47.247Z,5.52
2023-02-15T01:31:16.754Z,5.57
2023-02-15T01:33:45.864Z,5.62
2023-02-15T01:36:12.744Z,5.67
2023-02-15T01:38:41.091Z,5.71
2023-02-15T01:41:20.939Z,5.75
2023-02-15T01:43:59.715Z,5.77
2023-02-15T01:46:36.405Z,5.78
2023-02-15T01:49:19.446Z,5.77
2023-02-15T01:51:49.285Z,5.75
2023-02-15T01:54:25.963Z,5.74
2023-02-15T01:56:55.797Z,5.73
2023-02-15T01:59:24.668Z,5.71
2023-02-15T02:01:55.223Z,5.69
2023-02-15T02:04:34.859Z,5.65
2023-02-15T02:07:02.084Z,5.60
2023-02-15T02:09:30.112Z,5.55
2023-02-15T02:11:57.010Z,5.52
2023-02-15T02:14:25.244Z,5.49
2023-02-15T02:17:16.701Z,5.47
2023-02-15T02:19:44.231Z,5.42
2023-02-15T02:22:49.014Z,5.40
2023-02-15T02:25:21.720Z,5.40
2023-02-15T02:28:06.635Z,5.41
2023-02-15T02:30:42.239Z,5.37
2023-02-15T02:33:22.761Z,5.33
2023-02-15T02:36:09.657Z,5.28
2023-02-15T02:38:58.383Z,5.23
2023-02-15T02:41:28.147Z,5.18
2023-02-15T02:44:19.441Z,5.13
2023-02-15T02:46:59.707Z,5.07
2023-02-15T02:49:35.049Z,5.03
2023-02-15T02:52:05.354Z,5.01
2023-02-15T02:54:36.009Z,4.96
2023-02-15T02:57:09.833Z,4.94
2023-02-15T02:59:46.557Z,4.92
2023-02-15T03:02:22.198Z,4.91
2023-02-15T03:04:59.753Z,4.90
2023-02-15T03:07:29.923Z,4.92
2023-02-15T03:10:00.246Z,4.98
2023-02-15T03:12:45.413Z,5.05
2023-02-15T03:15:21.331Z,5.13
2023-02-15T03:17:54.829Z,5.18
2023-02-15T03:20:31.957Z,5.22
2023-02-15T03:23:11.608Z,5.28
2023-02-15T03:25:42.811Z,5.32
2023-02-15T03:28:18.283Z,5.35
2023-02-15T03:30:49.724Z,5.40
2023-02-15T03:33:17.009Z,5.42
2023-02-15T03:35:50.380Z,5.44
2023-02-15T03:38:27.079Z,5.46
2023-02-15T03:41:12.752Z,5.47
2023-02-15T03:43:57.771Z,5.49
2023-02-15T03:46:31.362Z,5.49
2023-02-15T03:49:04.927Z,5.51
2023-02-15T03:51:39.172Z,5.55
2023-02-15T03:54:43.729Z,5.56
2023-02-15T03:57:41.307Z,5.57
2023-02-15T04:00:42.724Z,5.58
2023-02-15T04:03:15.669Z,5.60
2023-02-15T04:05:45.704Z,5.63
2023-02-15T04:08:14.000Z,5.63
2023-02-15T04:10:53.441Z,5.65
2023-02-15T04:13:21.800Z,5.67
2023-02-15T04:16:07.816Z,5.70
2023-02-15T04:18:58.670Z,5.72
2023-02-15T04:21:46.512Z,5.73
2023-02-15T04:24:32.498Z,5.72
2023-02-15T04:27:00.235Z,5.70
2023-02-15T04:29:28.206Z,5.69
2023-02-15T04:31:57.149Z,5.70
2023-02-15T04:34:24.266Z,5.69
2023-02-15T04:36:51.375Z,5.72
2023-02-15T04:39:19.566Z,5.74
2023-02-15T04:41:46.748Z,5.79
2023-02-15T04:44:13.485Z,5.84
2023-02-15T04:46:40.037Z,5.86
2023-02-15T04:49:06.853Z,5.83
2023-02-15T04:51:33.623Z,5.77
2023-02-15T04:54:00.210Z,5.72
2023-02-15T04:56:26.932Z,5.69
2023-02-15T04:58:53.563Z,5.69
2023-02-15T05:01:20.353Z,5.67
2023-02-15T05:03:47.480Z,5.65
2023-02-15T05:06:14.173Z,5.61
2023-02-15T05:08:40.851Z,5.57
2023-02-15T05:11:07.529Z,5.53
2023-02-15T05:13:34.260Z,5.50
2023-02-15T05:16:01.253Z,5.47
2023-02-15T05:18:28.167Z,5.43
2023-02-15T05:20:54.877Z,5.39
2023-02-15T05:23:21.555Z,5.35
2023-02-15T05:26:07.526Z,5.33
2023-02-15T05:28:34.681Z,5.30
2023-02-15T05:31:04.347Z,5.27
2023-02-15T05:33:31.851Z,5.24
2023-02-15T05:35:58.832Z,5.22
2023-02-15T05:38:25.764Z,5.22
2023-02-15T05:40:53.301Z,5.21
2023-02-15T05:43:20.771Z,5.21
2023-02-15T05:45:49.435Z,5.19
2023-02-15T05:48:17.449Z,5.22
2023-02-15T05:50:44.560Z,5.23
2023-02-15T05:53:11.479Z,5.21
2023-02-15T05:55:39.943Z,5.19
2023-02-15T05:58:07.558Z,5.16
2023-02-15T06:00:37.346Z,5.11
2023-02-15T06:03:04.828Z,5.05
2023-02-15T06:05:31.439Z,4.99
2023-02-15T06:07:58.208Z,4.94
2023-02-15T06:10:24.956Z,4.89
2023-02-15T06:12:51.499Z,4.87
2023-02-15T06:15:18.269Z,4.86
2023-02-15T06:17:44.972Z,4.83
2023-02-15T06:20:12.265Z,4.81
2023-02-15T06:22:38.895Z,4.81
2023-02-15T06:25:05.948Z,4.81
2023-02-15T06:27:32.750Z,4.81
2023-02-15T06:29:59.495Z,4.77
2023-02-15T06:32:26.099Z,4.71
2023-02-15T06:34:52.799Z,4.66
2023-02-15T06:37:19.476Z,4.62
2023-02-15T06:39:46.371Z,4.58
2023-02-15T06:42:12.898Z,4.54
2023-02-15T06:44:39.598Z,4.50
2023-02-15T06:47:06.201Z,4.50
2023-02-15T06:49:32.851Z,4.53
2023-02-15T06:51:59.569Z,4.61
2023-02-15T06:54:26.181Z,4.71
2023-02-15T06:56:52.804Z,4.81
2023-02-15T06:59:19.567Z,4.90
2023-02-15T07:01:46.481Z,4.97
2023-02-15T07:04:13.507Z,5.01
2023-02-15T07:06:40.174Z,5.06
2023-02-15T07:09:07.311Z,5.12
2023-02-15T07:11:53.376Z,5.18
2023-02-15T07:14:20.189Z,5.26
2023-02-15T07:16:47.593Z,5.32
2023-02-15T07:19:14.293Z,5.39
2023-02-15T07:21:40.849Z,5.45
2023-02-15T07:24:07.548Z,5.48
2023-02-15T07:26:34.693Z,5.50
2023-02-15T07:29:01.306Z,5.53
2023-02-15T07:31:27.896Z,5.55
2023-02-15T07:33:54.657Z,5.57
2023-02-15T07:36:21.451Z,5.60
2023-02-15T07:38:48.181Z,5.66
2023-02-15T07:41:15.578Z,5.72
2023-02-15T07:43:44.691Z,5.81
2023-02-15T07:46:14.349Z,5.92
2023-02-15T07:48:41.895Z,6.05
2023-02-15T07:51:11.393Z,6.20
2023-02-15T07:53:39.605Z,6.35
2023-02-15T07:56:10.088Z,6.48
2023-02-15T07:58:52.977Z,6.60
2023-02-15T08:01:22.664Z,6.73
2023-02-15T08:03:50.335Z,6.83
2023-02-15T08:06:17.649Z,6.93
2023-02-15T08:08:44.434Z,7.05
2023-02-15T08:11:26.905Z,7.17
2023-02-15T08:14:15.510Z,7.24
2023-02-15T08:16:46.522Z,7.33
2023-02-15T08:19:18.506Z,7.42
2023-02-15T08:21:47.993Z,7.51
2023-02-15T08:24:16.321Z,7.61
2023-02-15T08:26:46.136Z,7.71
2023-02-15T08:29:12.833Z,7.80
2023-02-15T08:31:39.789Z,7.88
2023-02-15T08:34:06.950Z,7.97
2023-02-15T08:36:34.055Z,8.07
2023-02-15T08:39:04.549Z,8.18
2023-02-15T08:41:37.071Z,8.29
2023-02-15T08:44:07.722Z,8.41
2023-02-15T08:46:36.918Z,8.52
2023-02-15T08:49:04.577Z,8.67
2023-02-15T08:51:34.238Z,8.81
2023-02-15T08:54:04.534Z,8.90
2023-02-15T08:56:35.272Z,8.98
2023-02-15T08:59:02.215Z,9.05
2023-02-15T09:01:32.587Z,9.12
2023-02-15T09:04:10.883Z,9.21
2023-02-15T09:06:39.340Z,9.30
2023-02-15T09:09:07.386Z,9.38
2023-02-15T09:11:37.243Z,9.44
2023-02-15T09:14:07.083Z,9.52
2023-02-15T09:16:35.754Z,9.62
2023-02-15T09:19:05.747Z,9.71
2023-02-15T09:21:33.942Z,9.78
2023-02-15T09:24:03.604Z,9.88
2023-02-15T09:26:32.089Z,9.98
2023-02-15T09:29:02.026Z,10.06
2023-02-15T09:31:31.664Z,10.19
2023-02-15T09:34:01.838Z,10.28
2023-02-15T09:36:35.284Z,10.39
2023-02-15T09:39:17.377Z,10.49
2023-02-15T09:41:53.120Z,10.61
2023-02-15T09:44:47.900Z,10.72
2023-02-15T09:47:42.436Z,10.85
2023-02-15T09:50:36.377Z,10.96
2023-02-15T09:53:41.290Z,11.05
2023-02-15T09:56:21.122Z,11.15
2023-02-15T09:59:09.872Z,11.25
2023-02-15T10:01:48.671Z,11.35
2023-02-15T10:04:29.195Z,11.44
2023-02-15T10:07:17.225Z,11.52
2023-02-15T10:10:02.704Z,11.60
2023-02-15T10:12:53.355Z,11.66
2023-02-15T10:15:25.272Z,11.75
2023-02-15T10:18:13.787Z,11.81
2023-02-15T10:21:11.225Z,11.89
2023-02-15T10:23:48.542Z,12.00
2023-02-15T10:26:23.818Z,12.09
2023-02-15T10:28:52.511Z,12.16
2023-02-15T10:31:25.095Z,12.25
2023-02-15T10:34:13.689Z,12.35
2023-02-15T10:36:49.337Z,12.45
2023-02-15T10:39:29.987Z,12.53
2023-02-15T10:42:18.471Z,12.63
2023-02-15T10:44:54.202Z,12.71
2023-02-15T10:47:52.831Z,12.78
2023-02-15T10:50:28.024Z,12.86
2023-02-15T10:52:59.234Z,12.94
2023-02-15T10:55:52.681Z,13.01
2023-02-15T10:58:36.080Z,13.09
2023-02-15T11:01:13.120Z,13.16
2023-02-15T11:03:49.080Z,13.23
2023-02-15T11:06:20.578Z,13.26
2023-02-15T11:08:58.567Z,13.31
2023-02-15T11:11:40.439Z,13.37
2023-02-15T11:14:21.455Z,13.43
2023-02-15T11:16:54.744Z,13.48
2023-02-15T11:19:33.328Z,13.54
2023-02-15T11:22:04.948Z,13.60
2023-02-15T11:24:35.825Z,13.65
2023-02-15T11:27:24.680Z,13.70
2023-02-15T11:30:10.428Z,13.72
2023-02-15T11:32:44.717Z,13.73
2023-02-15T11:35:11.420Z,13.76
2023-02-15T11:37:45.207Z,13.78
2023-02-15T11:40:36.411Z,13.83
2023-02-15T11:43:09.055Z,13.88
2023-02-15T11:45:36.294Z,13.93
2023-02-15T11:48:11.156Z,13.97
2023-02-15T11:50:38.207Z,14.01
2023-02-15T11:53:12.532Z,14.05
2023-02-15T11:55:39.568Z,14.08
2023-02-15T11:58:21.514Z,14.11
2023-02-15T12:00:51.481Z,14.14
2023-02-15T12:03:30.323Z,14.15
2023-02-15T12:06:02.618Z,14.16
2023-02-15T12:08:41.551Z,14.20
2023-02-15T12:11:13.465Z,14.24
2023-02-15T12:13:57.376Z,14.28
2023-02-15T12:16:24.865Z,14.33
2023-02-15T12:18:54.711Z,14.37
2023-02-15T12:21:29.718Z,14.42
2023-02-15T12:24:05.087Z,14.45
2023-02-15T12:26:35.479Z,14.49
2023-02-15T12:29:13.822Z,14.52
2023-02-15T12:31:43.061Z,14.56
2023-02-15T12:34:44.818Z,14.60
2023-02-15T12:37:22.436Z,14.63
2023-02-15T12:39:57.013Z,14.65
2023-02-15T12:42:25.852Z,14.65
2023-02-15T12:45:00.193Z,14.67
2023-02-15T12:47:29.385Z,14.70
2023-02-15T12:50:18.295Z,14.72
2023-02-15T12:52:50.124Z,14.76
2023-02-15T12:55:24.787Z,14.77
2023-02-15T12:58:06.962Z,14.78
2023-02-15T13:00:33.774Z,14.80
2023-02-15T13:03:01.614Z,14.81
2023-02-15T13:05:45.132Z,14.84
2023-02-15T13:08:19.765Z,14.85
2023-02-15T13:11:38.566Z,14.85
2023-02-15T13:14:27.679Z,14.87
2023-02-15T13:16:59.282Z,14.89
2023-02-15T13:19:46.082Z,14.91
2023-02-15T13:22:20.712Z,14.93
2023-02-15T13:24:51.204Z,14.95
2023-02-15T13:27:21.480Z,14.95
2023-02-15T13:29:52.757Z,14.95
2023-02-15T13:32:29.009Z,14.95
2023-02-15T13:35:01.044Z,14.96
2023-02-15T13:37:33.572Z,14.98
2023-02-15T13:40:07.988Z,14.99
2023-02-15T13:42:44.038Z,14.98
2023-02-15T13:45:31.696Z,14.99
2023-02-15T13:48:03.593Z,15.01
2023-02-15T13:50:56.202Z,15.02
2023-02-15T13:53:26.162Z,15.04
2023-02-15T13:55:58.673Z,15.04
2023-02-15T13:58:47.655Z,15.03
2023-02-15T14:01:33.080Z,15.04
2023-02-15T14:04:20.272Z,15.06
2023-02-15T14:06:50.028Z,15.07
2023-02-15T14:09:42.557Z,15.10
2023-02-15T14:12:22.686Z,15.12
2023-02-15T14:14:55.510Z,15.14
2023-02-15T14:17:27.835Z,15.16
2023-02-15T14:20:18.235Z,15.17
2023-02-15T14:22:55.879Z,15.19
2023-02-15T14:25:58.263Z,15.20
2023-02-15T14:28:49.304Z,15.20
2023-02-15T14:31:17.284Z,15.20
2023-02-15T14:33:58.458Z,15.20
2023-02-15T14:36:28.979Z,15.19
2023-02-15T14:39:46.573Z,15.20
2023-02-15T14:42:25.663Z,15.19
2023-02-15T14:45:12.626Z,15.18
2023-02-15T14:47:45.343Z,15.17
2023-02-15T14:50:31.012Z,15.17
2023-02-15T14:53:16.687Z,15.16
2023-02-15T14:55:43.472Z,15.16
2023-02-15T14:58:14.551Z,15.14
2023-02-15T15:00:43.027Z,15.12
2023-02-15T15:03:24.170Z,15.10
2023-02-15T15:06:00.439Z,15.08
2023-02-15T15:08:35.390Z,15.05
2023-02-15T15:11:42.944Z,15.03
2023-02-15T15:14:31.531Z,15.01
2023-02-15T15:16:59.926Z,14.99
2023-02-15T15:19:52.250Z,14.97
2023-02-15T15:22:28.880Z,14.95
2023-02-15T15:24:56.490Z,14.91
2023-02-15T15:27:52.053Z,14.88
2023-02-15T15:30:18.696Z,14.85
2023-02-15T15:32:50.791Z,14.81
2023-02-15T15:35:53.018Z,14.78
2023-02-15T15:38:28.861Z,14.74
2023-02-15T15:41:20.197Z,14.70
2023-02-15T15:44:19.862Z,14.64
2023-02-15T15:47:05.139Z,14.58
2023-02-15T15:49:35.901Z,14.51
2023-02-15T15:52:09.990Z,14.46
2023-02-15T15:54:40.957Z,14.41
2023-02-15T15:57:35.867Z,14.36
2023-02-15T16:00:03.913Z,14.29
2023-02-15T16:02:51.401Z,14.23
2023-02-15T16:05:18.123Z,14.18
2023-02-15T16:07:44.780Z,14.11
2023-02-15T16:10:27.323Z,14.07
2023-02-15T16:12:55.866Z,14.01
2023-02-15T16:15:37.088Z,13.94
2023-02-15T16:18:04.673Z,13.87
2023-02-15T16:20:37.526Z,13.81
2023-02-15T16:23:17.723Z,13.75
2023-02-15T16:26:08.813Z,13.69
2023-02-15T16:28:35.658Z,13.62
2023-02-15T16:31:14.450Z,13.55
2023-02-15T16:33:42.815Z,13.46
2023-02-15T16:36:20.678Z,13.38
2023-02-15T16:38:47.352Z,13.29
2023-02-15T16:41:20.925Z,13.19
2023-02-15T16:43:50.330Z,13.09
2023-02-15T16:46:23.245Z,12.97
2023-02-15T16:48:53.317Z,12.87
2023-02-15T16:51:23.958Z,12.75
2023-02-15T16:53:52.683Z,12.64
2023-02-15T16:56:25.147Z,12.52
2023-02-15T16:58:54.813Z,12.40
2023-02-15T17:01:25.973Z,12.27
2023-02-15T17:04:14.067Z,12.15
2023-02-15T17:06:40.924Z,12.05
2023-02-15T17:09:19.422Z,11.97
2023-02-15T17:11:46.145Z,11.88
2023-02-15T17:14:21.883Z,11.78
2023-02-15T17:17:02.369Z,11.68
2023-02-15T17:19:41.471Z,11.58
2023-02-15T17:22:08.484Z,11.47
2023-02-15T17:24:38.579Z,11.38
2023-02-15T17:27:25.037Z,11.29
2023-02-15T17:30:01.607Z,11.20
2023-02-15T17:32:31.290Z,11.12
2023-02-15T17:35:00.946Z,11.05
2023-02-15T17:37:43.846Z,11.00
2023-02-15T17:40:21.718Z,10.94
2023-02-15T17:42:49.011Z,10.87
2023-02-15T17:45:16.192Z,10.81
2023-02-15T17:47:43.750Z,10.76
2023-02-15T17:50:20.807Z,10.72
2023-02-15T17:52:48.172Z,10.68
2023-02-15T17:55:36.217Z,10.64
2023-02-15T17:58:08.803Z,10.59
2023-02-15T18:00:56.713Z,10.53
2023-02-15T18:03:43.842Z,10.46
2023-02-15T18:06:32.556Z,10.38
2023-02-15T18:09:17.762Z,10.33
2023-02-15T18:11:48.788Z,10.30
2023-02-15T18:14:15.441Z,10.26
2023-02-15T18:16:45.817Z,10.22
2023-02-15T18:19:25.438Z,10.19
2023-02-15T18:21:53.347Z,10.17
2023-02-15T18:24:25.030Z,10.17
2023-02-15T18:26:53.588Z,10.16
2023-02-15T18:29:21.362Z,10.14
2023-02-15T18:31:52.814Z,10.12
2023-02-15T18:34:25.371Z,10.10
2023-02-15T18:36:52.993Z,10.08
2023-02-15T18:39:27.188Z,10.06
2023-02-15T18:41:54.364Z,10.03
2023-02-15T18:44:21.087Z,10.01
2023-02-15T18:46:47.791Z,9.98
2023-02-15T18:49:14.589Z,9.95
2023-02-15T18:51:41.413Z,9.93
2023-02-15T18:54:20.065Z,9.92
2023-02-15T18:56:49.107Z,9.89
2023-02-15T18:59:17.553Z,9.83
2023-02-15T19:01:44.360Z,9.79
2023-02-15T19:04:11.174Z,9.77
2023-02-15T19:06:43.485Z,9.75
2023-02-15T19:09:16.158Z,9.72
2023-02-15T19:11:47.478Z,9.69
2023-02-15T19:14:25.254Z,9.68
2023-02-15T19:16:52.531Z,9.65
2023-02-15T19:19:19.392Z,9.63
2023-02-15T19:21:46.611Z,9.60
2023-02-15T19:24:25.170Z,9.57
2023-02-15T19:26:52.912Z,9.55
2023-02-15T19:29:30.035Z,9.52
2023-02-15T19:31:58.181Z,9.52
2023-02-15T19:34:25.208Z,9.52
2023-02-15T19:36:54.390Z,9.51
2023-02-15T19:39:37.625Z,9.49
2023-02-15T19:42:04.586Z,9.46
2023-02-15T19:44:31.415Z,9.44
2023-02-15T19:46:58.140Z,9.43
2023-02-15T19:49:26.902Z,9.43
2023-02-15T19:51:53.890Z,9.43
2023-02-15T19:54:33.508Z,9.44
2023-02-15T19:57:03.339Z,9.42
2023-02-15T19:59:35.090Z,9.40
2023-02-15T20:02:03.088Z,9.39
2023-02-15T20:04:30.026Z,9.38
2023-02-15T20:07:02.531Z,9.37
2023-02-15T20:09:34.762Z,9.36
2023-02-15T20:12:01.921Z,9.36
2023-02-15T20:14:29.083Z,9.34
2023-02-15T20:16:58.356Z,9.34
2023-02-15T20:19:25.298Z,9.33
2023-02-15T20:21:54.807Z,9.32
2023-02-15T20:24:24.340Z,9.31
2023-02-15T20:26:52.998Z,9.30
2023-02-15T20:29:20.791Z,9.27
2023-02-15T20:31:47.826Z,9.24
2023-02-15T20:34:14.686Z,9.21
2023-02-15T20:36:44.111Z,9.17
2023-02-15T20:39:22.268Z,9.13
2023-02-15T20:41:49.403Z,9.09
2023-02-15T20:44:18.466Z,9.06
2023-02-15T20:46:46.174Z,9.04
2023-02-15T20:49:13.083Z,9.01
2023-02-15T20:51:41.731Z,8.99
2023-02-15T20:54:17.565Z,8.97
2023-02-15T20:56:45.430Z,8.95
2023-02-15T20:59:20.985Z,8.93
2023-02-15T21:01:48.882Z,8.91
2023-02-15T21:04:30.627Z,8.88
2023-02-15T21:06:57.569Z,8.86
2023-02-15T21:09:24.350Z,8.83
2023-02-15T21:11:53.782Z,8.81
2023-02-15T21:14:23.570Z,8.79
2023-02-15T21:16:51.108Z,8.78
2023-02-15T21:19:21.746Z,8.80
2023-02-15T21:21:51.332Z,8.82
2023-02-15T21:24:29.417Z,8.81
2023-02-15T21:27:00.789Z,8.79
2023-02-15T21:29:29.520Z,8.76
2023-02-15T21:32:00.593Z,8.73
2023-02-15T21:34:27.480Z,8.70
2023-02-15T21:36:56.694Z,8.69
2023-02-15T21:39:29.424Z,8.67
2023-02-15T21:42:15.580Z,8.64
2023-02-15T21:45:11.794Z,8.63
2023-02-15T21:47:50.488Z,8.62
2023-02-15T21:50:40.921Z,8.59
2023-02-15T21:53:12.201Z,8.58
2023-02-15T21:55:40.341Z,8.58
2023-02-15T21:58:07.375Z,8.57
2023-02-15T22:00:34.241Z,8.56
2023-02-15T22:03:02.137Z,8.55
2023-02-15T22:05:32.279Z,8.53
2023-02-15T22:08:00.114Z,8.54
2023-02-15T22:10:30.316Z,8.55
2023-02-15T22:12:59.925Z,8.57
2023-02-15T22:15:35.732Z,8.60
2023-02-15T22:18:05.271Z,8.61
2023-02-15T22:20:32.395Z,8.63
2023-02-15T22:22:59.097Z,8.63
2023-02-15T22:25:26.694Z,8.64
2023-02-15T22:27:54.762Z,8.63
2023-02-15T22:30:30.781Z,8.59
2023-02-15T22:32:58.639Z,8.56
2023-02-15T22:35:28.538Z,8.54
2023-02-15T22:37:55.332Z,8.51
2023-02-15T22:40:27.673Z,8.48
2023-02-15T22:42:55.119Z,8.49
2023-02-15T22:45:24.616Z,8.49
2023-02-15T22:47:57.325Z,8.50
2023-02-15T22:50:25.558Z,8.50
2023-02-15T22:52:52.616Z,8.48
2023-02-15T22:55:22.392Z,8.46
2023-02-15T22:57:52.795Z,8.42
2023-02-15T23:00:24.546Z,8.37
2023-02-15T23:02:51.449Z,8.34
2023-02-15T23:05:23.750Z,8.30
2023-02-15T23:07:51.209Z,8.27
2023-02-15T23:10:22.785Z,8.25
2023-02-15T23:13:13.504Z,8.24
2023-02-15T23:15:40.592Z,8.22
2023-02-15T23:18:18.202Z,8.17
2023-02-15T23:20:50.982Z,8.13
2023-02-15T23:23:20.575Z,8.07
2023-02-15T23:25:48.814Z,8.02
2023-02-15T23:28:23.220Z,7.97
2023-02-15T23:30:50.388Z,7.92
2023-02-15T23:33:20.381Z,7.88
2023-02-15T23:35:47.292Z,7.84
2023-02-15T23:38:27.578Z,7.81
2023-02-15T23:41:19.198Z,7.77
2023-02-15T23:44:15.252Z,7.73
2023-02-15T23:46:45.421Z,7.69
2023-02-15T23:49:17.989Z,7.66
2023-02-15T23:51:48.040Z,7.66
2023-02-15T23:54:16.528Z,7.65
2023-02-15T23:56:45.934Z,7.64
2023-02-15T23:59:18.222Z,7.61
